Time;durP1;ratioP1;P1;durP2;ratioP2;P2;SDS_P1;SDS_P2;PMS_P1;PMS_P2;Temp;Humidity;BMP_temperature;BMP_pressure;BME280_temperature;BME280_humidity;BME280_pressure;Samples;Min_cycle;Max_cycle;Signal;HPM_P1;HPM_P2
2023/05/04 00:00:57;;;;;;;23.50;8.60;;;;;;;;;;13006292;19;20010;-63
2023/05/04 00:05:14;;;;;;;20.63;9.20;;;;;;;;;;13005948;19;20485;-64
2023/05/04 00:09:32;;;;;;;26.40;9.98;;;;;;;;;;13006517;19;20315;-63
2023/05/04 00:13:50;;;;;;;34.95;11.82;;;;;;;;;;13006196;19;20013;-63
2023/05/04 00:18:07;;;;;;;37.67;11.95;;;;;;;;;;13005597;19;20026;-63
2023/05/04 00:22:25;;;;;;;26.75;8.77;;;;;;;;;;13006360;19;20422;-64
2023/05/04 00:26:44;;;;;;;28.45;8.93;;;;;;;;;;13006343;19;20014;-64
2023/05/04 00:31:02;;;;;;;26.42;9.75;;;;;;;;;;13006011;19;20011;-64
2023/05/04 00:35:20;;;;;;;;;;;;;;;;;;13005377;19;20010;-64
2023/05/04 00:39:37;;;;;;;20.97;6.80;;;;;;;;;;13004404;19;19934;-64
2023/05/04 00:43:55;;;;;;;25.25;9.18;;;;;;;;;;13004253;19;20354;-64
2023/05/04 00:48:13;;;;;;;27.85;8.52;;;;;;;;;;13004218;19;20006;-65
2023/05/04 00:52:30;;;;;;;16.10;6.82;;;;;;;;;;13005051;19;20018;-64
2023/05/04 00:56:49;;;;;;;18.65;6.53;;;;;;;;;;13004526;19;20104;-64
2023/05/04 01:01:07;;;;;;;14.93;5.82;;;;;;;;;;13002965;19;20039;-63
2023/05/04 01:05:28;;;;;;;;;;;;;;;;;;13005821;19;20015;-64
2023/05/04 01:10:03;;;;;;;19.05;6.25;;;;;;;;;;13002208;19;19922;-64
2023/05/04 01:14:22;;;;;;;17.83;6.55;;;;;;;;;;13000674;19;20458;-64
2023/05/04 01:18:40;;;;;;;17.98;7.40;;;;;;;;;;13002418;19;20017;-63
2023/05/04 01:22:58;;;;;;;15.00;6.50;;;;;;;;;;13002235;19;20042;-64
2023/05/04 01:27:25;;;;;;;19.45;6.40;;;;;;;;;;13002247;19;20021;-63
2023/05/04 01:31:45;;;;;;;17.63;6.30;;;;;;;;;;13001120;19;20003;-63
2023/05/04 01:36:03;;;;;;;14.93;5.30;;;;;;;;;;13000834;19;20007;-64
2023/05/04 01:40:21;;;;;;;13.00;5.15;;;;;;;;;;12999811;19;20026;-63
2023/05/04 01:44:39;;;;;;;17.30;5.50;;;;;;;;;;13000813;19;20011;-63
2023/05/04 01:48:57;;;;;;;13.48;5.78;;;;;;;;;;13001180;19;20050;-63
2023/05/04 01:53:15;;;;;;;13.52;5.30;;;;;;;;;;13000424;19;20018;-64
2023/05/04 01:57:33;;;;;;;12.00;4.82;;;;;;;;;;13000485;19;20006;-64
2023/05/04 02:01:50;;;;;;;17.05;6.90;;;;;;;;;;13000166;19;20010;-63
2023/05/04 02:06:08;;;;;;;15.40;7.32;;;;;;;;;;12999660;19;20385;-64
2023/05/04 02:10:26;;;;;;;18.38;6.18;;;;;;;;;;13000342;19;20354;-63
2023/05/04 02:14:44;;;;;;;17.20;5.32;;;;;;;;;;12999837;19;20018;-63
2023/05/04 02:19:02;;;;;;;19.73;7.03;;;;;;;;;;12998651;19;20011;-64
2023/05/04 02:23:19;;;;;;;25.23;7.80;;;;;;;;;;12999026;19;20043;-63
2023/05/04 02:27:37;;;;;;;21.35;5.80;;;;;;;;;;13010171;19;20017;-64
2023/05/04 02:31:55;;;;;;;18.33;6.68;;;;;;;;;;13012011;19;20470;-64
2023/05/04 02:36:13;;;;;;;18.58;5.45;;;;;;;;;;13011196;19;20466;-64
2023/05/04 02:40:30;;;;;;;11.75;5.07;;;;;;;;;;13011356;19;20009;-64
2023/05/04 02:44:48;;;;;;;18.77;7.28;;;;;;;;;;13010670;19;20011;-64
2023/05/04 02:49:06;;;;;;;17.92;5.93;;;;;;;;;;13010805;19;20017;-63
2023/05/04 02:53:24;;;;;;;;;;;;;;;;;;13011206;19;20018;-63
2023/05/04 02:57:42;;;;;;;13.57;4.55;;;;;;;;;;13010919;19;19922;-63
2023/05/04 03:01:59;;;;;;;15.37;6.00;;;;;;;;;;13009281;19;20461;-64
2023/05/04 03:06:17;;;;;;;20.75;6.78;;;;;;;;;;13009760;19;20219;-63
2023/05/04 03:10:35;;;;;;;21.60;6.57;;;;;;;;;;13010238;19;20022;-64
2023/05/04 03:14:52;;;;;;;26.27;7.40;;;;;;;;;;13010488;19;20323;-63
2023/05/04 03:19:10;;;;;;;44.30;9.95;;;;;;;;;;13007485;19;20003;-64
2023/05/04 03:23:28;;;;;;;30.92;9.30;;;;;;;;;;13008912;19;20003;-64
2023/05/04 03:27:46;;;;;;;29.35;10.65;;;;;;;;;;13008792;19;20462;-64
2023/05/04 03:32:04;;;;;;;25.83;9.70;;;;;;;;;;13007790;19;20472;-63
2023/05/04 03:36:22;;;;;;;22.00;8.98;;;;;;;;;;13007399;19;20019;-63
2023/05/04 03:40:39;;;;;;;22.45;7.95;;;;;;;;;;13006916;19;20014;-64
2023/05/04 03:44:57;;;;;;;22.50;8.00;;;;;;;;;;13007725;19;20010;-63
2023/05/04 03:49:15;;;;;;;18.60;7.10;;;;;;;;;;13007240;19;20003;-63
2023/05/04 03:53:34;;;;;;;26.17;7.88;;;;;;;;;;13007389;19;20007;-64
2023/05/04 03:57:52;;;;;;;26.67;7.97;;;;;;;;;;13006976;19;20331;-64
2023/05/04 04:02:09;;;;;;;15.52;6.13;;;;;;;;;;13005628;19;20011;-64
2023/05/04 04:06:27;;;;;;;18.17;5.40;;;;;;;;;;13006510;19;20025;-63
2023/05/04 04:10:45;;;;;;;17.05;4.60;;;;;;;;;;13006381;19;20469;-64
2023/05/04 04:15:03;;;;;;;11.25;4.13;;;;;;;;;;13005382;19;20007;-64
2023/05/04 04:19:20;;;;;;;;;;;;;;;;;;13005560;19;20433;-64
2023/05/04 04:23:38;;;;;;;10.00;4.20;;;;;;;;;;13006236;19;20326;-64
2023/05/04 04:27:56;;;;;;;7.00;3.03;;;;;;;;;;13005291;19;20014;-63
2023/05/04 04:32:14;;;;;;;6.57;3.00;;;;;;;;;;13004655;19;20007;-64
2023/05/04 04:36:32;;;;;;;;;;;;;;;;;;13005295;19;20011;-63
2023/05/04 04:40:50;;;;;;;5.13;2.38;;;;;;;;;;13003451;19;20323;-63
2023/05/04 04:45:08;;;;;;;3.40;2.38;;;;;;;;;;13004132;19;20007;-63
2023/05/04 04:49:26;;;;;;;3.78;2.38;;;;;;;;;;13002062;19;20346;-63
2023/05/04 04:53:44;;;;;;;5.70;2.92;;;;;;;;;;13004153;19;20014;-64
2023/05/04 04:58:02;;;;;;;4.80;2.47;;;;;;;;;;13003748;19;20014;-64
2023/05/04 05:02:20;;;;;;;2.88;1.90;;;;;;;;;;13003240;19;20011;-64
2023/05/04 05:06:37;;;;;;;4.88;2.28;;;;;;;;;;13004174;19;20042;-64
2023/05/04 05:10:55;;;;;;;2.90;1.80;;;;;;;;;;13003536;19;20006;-64
2023/05/04 05:15:13;;;;;;;4.60;2.85;;;;;;;;;;13002358;19;20002;-64
2023/05/04 05:19:35;;;;;;;3.35;1.70;;;;;;;;;;13002438;19;20346;-64
2023/05/04 05:23:53;;;;;;;4.97;2.63;;;;;;;;;;13002537;19;20006;-64
2023/05/04 05:28:13;;;;;;;5.93;3.45;;;;;;;;;;13001899;19;20002;-65
2023/05/04 05:32:31;;;;;;;6.57;3.35;;;;;;;;;;13002110;19;20014;-64
2023/05/04 05:36:48;;;;;;;;;;;;;;;;;;13002098;19;20003;-64
2023/05/04 05:41:06;;;;;;;6.30;3.20;;;;;;;;;;12999589;19;19938;-64
2023/05/04 05:45:24;;;;;;;5.68;3.30;;;;;;;;;;13001634;19;20013;-64
2023/05/04 05:49:41;;;;;;;6.30;2.70;;;;;;;;;;12980708;19;20493;-64
2023/05/04 05:54:02;;;;;;;3.38;2.35;;;;;;;;;;12973041;19;20693;-65
2023/05/04 05:58:20;;;;;;;4.78;1.92;;;;;;;;;;12979078;19;20383;-64
2023/05/04 06:02:39;;;;;;;3.15;1.52;;;;;;;;;;12985948;19;20071;-64
2023/05/04 06:06:56;;;;;;;4.70;1.73;;;;;;;;;;12987052;19;20014;-64
2023/05/04 06:11:14;;;;;;;3.53;1.55;;;;;;;;;;12987033;19;20026;-64
2023/05/04 06:15:32;;;;;;;4.35;1.80;;;;;;;;;;12987897;19;20011;-64
2023/05/04 06:19:50;;;;;;;3.65;2.50;;;;;;;;;;12987949;19;20014;-63
2023/05/04 06:24:07;;;;;;;3.17;2.00;;;;;;;;;;12986892;19;20014;-64
2023/05/04 06:28:25;;;;;;;3.50;1.50;;;;;;;;;;12987521;19;20139;-64
2023/05/04 06:32:43;;;;;;;4.43;1.97;;;;;;;;;;12987614;19;20032;-65
2023/05/04 06:37:01;;;;;;;3.38;1.77;;;;;;;;;;12986758;19;20224;-65
2023/05/04 06:41:18;;;;;;;7.13;2.20;;;;;;;;;;12984622;19;20022;-65
2023/05/04 06:45:36;;;;;;;4.03;1.90;;;;;;;;;;12985524;19;20031;-66
2023/05/04 06:49:54;;;;;;;;;;;;;;;;;;12986264;19;20019;-65
2023/05/04 06:54:12;;;;;;;2.33;1.48;;;;;;;;;;12985076;19;19915;-65
2023/05/04 06:58:29;;;;;;;4.07;1.67;;;;;;;;;;12985943;19;20044;-65
2023/05/04 07:02:47;;;;;;;3.20;1.80;;;;;;;;;;12985573;19;20018;-65
2023/05/04 07:07:05;;;;;;;2.38;1.65;;;;;;;;;;12985068;19;20031;-66
2023/05/04 07:11:23;;;;;;;4.40;1.83;;;;;;;;;;12983042;19;20131;-66
2023/05/04 07:15:41;;;;;;;2.58;1.48;;;;;;;;;;12984983;19;20010;-66
2023/05/04 07:20:06;;;;;;;3.58;1.27;;;;;;;;;;12984207;19;20018;-66
2023/05/04 07:24:27;;;;;;;2.40;1.05;;;;;;;;;;12982308;19;20027;-66
2023/05/04 07:28:45;;;;;;;2.15;1.27;;;;;;;;;;12984631;19;20023;-65
2023/05/04 07:33:03;;;;;;;1.88;1.10;;;;;;;;;;12983560;19;20018;-66
2023/05/04 07:37:21;;;;;;;2.22;1.13;;;;;;;;;;12983959;19;20039;-66
2023/05/04 07:41:38;;;;;;;2.60;1.55;;;;;;;;;;12982521;19;20028;-66
2023/05/04 07:45:56;;;;;;;2.28;1.25;;;;;;;;;;12983458;19;20014;-66
2023/05/04 07:50:14;;;;;;;3.72;1.38;;;;;;;;;;12983345;19;20023;-65
2023/05/04 07:54:32;;;;;;;3.42;1.55;;;;;;;;;;12982970;19;20903;-66
2023/05/04 07:58:50;;;;;;;2.00;1.33;;;;;;;;;;12982840;19;20010;-65
2023/05/04 08:03:08;;;;;;;4.80;1.23;;;;;;;;;;12980647;19;20015;-66
2023/05/04 08:07:26;;;;;;;1.38;0.98;;;;;;;;;;12982280;19;20466;-65
2023/05/04 08:11:45;;;;;;;8.70;3.53;;;;;;;;;;12981441;19;20018;-66
2023/05/04 08:16:05;;;;;;;3.97;2.08;;;;;;;;;;12980709;19;20033;-66
2023/05/04 08:20:23;;;;;;;1.83;1.33;;;;;;;;;;12980802;19;20836;-65
2023/05/04 08:24:41;;;;;;;2.13;1.10;;;;;;;;;;12978744;19;20019;-65
2023/05/04 08:29:07;;;;;;;4.85;1.45;;;;;;;;;;12981182;19;20003;-64
2023/05/04 08:33:24;;;;;;;3.13;1.30;;;;;;;;;;12980460;19;20011;-65
2023/05/04 08:37:42;;;;;;;3.17;1.67;;;;;;;;;;12979265;19;20015;-65
2023/05/04 08:42:01;;;;;;;1.90;1.00;;;;;;;;;;12978928;19;20040;-65
2023/05/04 08:46:18;;;;;;;5.10;2.72;;;;;;;;;;12980195;19;20018;-65
2023/05/04 08:50:37;;;;;;;3.10;1.67;;;;;;;;;;12979473;19;20120;-65
2023/05/04 08:54:55;;;;;;;;;;;;;;;;;;12979467;19;20343;-65
2023/05/04 08:59:19;;;;;;;3.00;1.70;;;;;;;;;;12978976;19;19915;-64
2023/05/04 09:03:38;;;;;;;3.13;1.25;;;;;;;;;;12979185;19;20465;-65
2023/05/04 09:07:57;;;;;;;2.33;1.60;;;;;;;;;;12978881;19;20039;-64
2023/05/04 09:12:15;;;;;;;4.30;1.38;;;;;;;;;;12978715;19;20753;-65
2023/05/04 09:16:38;;;;;;;4.63;1.23;;;;;;;;;;12978577;19;20006;-65
2023/05/04 09:20:56;;;;;;;2.47;1.70;;;;;;;;;;12977934;19;20010;-65
2023/05/04 09:25:14;;;;;;;2.00;1.00;;;;;;;;;;12977152;19;20014;-65
2023/05/04 09:29:31;;;;;;;1.88;1.10;;;;;;;;;;12977710;19;20363;-64
2023/05/04 09:33:49;;;;;;;2.53;1.35;;;;;;;;;;12976621;19;20018;-64
2023/05/04 09:38:09;;;;;;;2.05;1.20;;;;;;;;;;12976672;19;20772;-67
2023/05/04 09:42:27;;;;;;;1.00;0.80;;;;;;;;;;12974115;19;20029;-68
2023/05/04 09:46:56;;;;;;;1.58;1.00;;;;;;;;;;12976884;19;20021;-67
2023/05/04 09:51:14;;;;;;;2.13;1.00;;;;;;;;;;12976361;19;20025;-67
2023/05/04 09:55:32;;;;;;;3.28;1.38;;;;;;;;;;12976259;19;20007;-68
2023/05/04 09:59:51;;;;;;;;;;;;;;;;;;12975703;19;20031;-68
2023/05/04 10:04:09;;;;;;;2.00;1.15;;;;;;;;;;12975568;19;19919;-67
2023/05/04 10:08:27;;;;;;;0.93;0.73;;;;;;;;;;12974151;19;20010;-68
2023/05/04 10:12:45;;;;;;;0.93;0.88;;;;;;;;;;12974843;19;20021;-67
2023/05/04 10:17:30;;;;;;;1.40;0.95;;;;;;;;;;12973856;19;20022;-68
2023/05/04 10:22:13;;;;;;;2.30;1.02;;;;;;;;;;12974111;19;20018;-67
2023/05/04 10:26:58;;;;;;;4.60;1.55;;;;;;;;;;12972791;19;20368;-67
2023/05/04 10:31:17;;;;;;;3.10;1.30;;;;;;;;;;12972817;19;20033;-67
2023/05/04 10:35:34;;;;;;;2.35;1.10;;;;;;;;;;12974955;19;20002;-68
2023/05/04 10:39:53;;;;;;;1.75;0.90;;;;;;;;;;12972344;19;20765;-66
2023/05/04 10:44:11;;;;;;;1.27;1.05;;;;;;;;;;12972843;19;20021;-67
2023/05/04 10:48:36;;;;;;;1.75;1.20;;;;;;;;;;12962477;19;20034;-67
2023/05/04 10:52:54;;;;;;;1.63;0.90;;;;;;;;;;12984656;19;20044;-66
2023/05/04 10:57:18;;;;;;;1.75;1.00;;;;;;;;;;12985528;19;20022;-68
2023/05/04 11:01:44;;;;;;;1.03;0.80;;;;;;;;;;12983389;19;20042;-67
2023/05/04 11:06:02;;;;;;;6.93;1.43;;;;;;;;;;12984664;19;20015;-66
2023/05/04 11:10:25;;;;;;;2.60;1.50;;;;;;;;;;12986319;19;20014;-66
2023/05/04 11:14:43;;;;;;;2.67;1.25;;;;;;;;;;12984725;19;20026;-66
2023/05/04 11:19:08;;;;;;;;;;;;;;;;;;12986059;19;20025;-67
2023/05/04 11:23:27;;;;;;;2.63;1.20;;;;;;;;;;12984613;19;19969;-67
2023/05/04 11:27:47;;;;;;;2.53;1.20;;;;;;;;;;12984112;19;20485;-67
2023/05/04 11:32:06;;;;;;;2.35;1.30;;;;;;;;;;12982335;19;20023;-67
2023/05/04 11:36:24;;;;;;;1.42;1.02;;;;;;;;;;12983785;19;20010;-66
2023/05/04 11:40:47;;;;;;;1.85;1.20;;;;;;;;;;12982436;19;20010;-67
2023/05/04 11:45:18;;;;;;;5.30;1.08;;;;;;;;;;12981942;19;20878;-66
2023/05/04 11:49:36;;;;;;;1.58;1.15;;;;;;;;;;12983164;19;20034;-69
2023/05/04 11:53:54;;;;;;;1.92;0.98;;;;;;;;;;12983334;19;20033;-67
2023/05/04 11:58:12;;;;;;;2.40;0.95;;;;;;;;;;12981770;19;20014;-68
2023/05/04 12:02:29;;;;;;;2.38;1.00;;;;;;;;;;12982808;19;20023;-67
2023/05/04 12:06:48;;;;;;;2.35;1.20;;;;;;;;;;12981874;19;20029;-67
2023/05/04 12:11:19;;;;;;;1.80;0.80;;;;;;;;;;12980643;19;20018;-66
2023/05/04 12:15:37;;;;;;;2.85;1.30;;;;;;;;;;12981480;19;20018;-67
2023/05/04 12:19:55;;;;;;;1.92;0.90;;;;;;;;;;12979401;19;20031;-66
2023/05/04 12:24:14;;;;;;;3.55;0.77;;;;;;;;;;12981515;19;20042;-66
2023/05/04 12:28:34;;;;;;;2.22;1.13;;;;;;;;;;12957772;19;20021;-65
2023/05/04 12:32:54;;;;;;;1.83;1.27;;;;;;;;;;12981842;19;20014;-67
2023/05/04 12:37:12;;;;;;;2.25;1.08;;;;;;;;;;12980017;19;20033;-66
2023/05/04 12:41:30;;;;;;;2.28;1.20;;;;;;;;;;12979552;19;20015;-66
2023/05/04 12:45:51;;;;;;;4.22;1.17;;;;;;;;;;12979546;19;20006;-66
2023/05/04 12:50:09;;;;;;;1.70;1.15;;;;;;;;;;12978804;19;20043;-67
2023/05/04 12:54:27;;;;;;;2.53;1.15;;;;;;;;;;12979368;19;20002;-66
2023/05/04 12:58:45;;;;;;;2.35;1.00;;;;;;;;;;12955658;19;20007;-66
2023/05/04 13:03:04;;;;;;;1.48;0.88;;;;;;;;;;12977943;19;20035;-66
2023/05/04 13:07:21;;;;;;;2.28;0.88;;;;;;;;;;12978644;19;20492;-66
2023/05/04 13:11:39;;;;;;;2.58;1.17;;;;;;;;;;12974700;19;20390;-67
2023/05/04 13:16:00;;;;;;;1.33;0.90;;;;;;;;;;12977527;19;20022;-66
2023/05/04 13:20:18;;;;;;;1.77;0.90;;;;;;;;;;12978695;19;20033;-66
2023/05/04 13:24:36;;;;;;;3.03;1.25;;;;;;;;;;12978442;19;20025;-66
2023/05/04 13:28:53;;;;;;;2.65;0.98;;;;;;;;;;12977715;19;20541;-65
2023/05/04 13:33:11;;;;;;;2.20;1.20;;;;;;;;;;12934499;19;20083;-65
2023/05/04 13:37:44;;;;;;;2.88;1.20;;;;;;;;;;12956271;19;20705;-67
2023/05/04 13:42:02;;;;;;;1.55;0.95;;;;;;;;;;12975032;19;20014;-65
2023/05/04 13:46:20;;;;;;;1.50;0.90;;;;;;;;;;12976412;19;20019;-65
2023/05/04 13:50:38;;;;;;;1.55;0.90;;;;;;;;;;12976670;19;20010;-66
2023/05/04 13:54:56;;;;;;;1.27;0.75;;;;;;;;;;12975660;19;20026;-66
2023/05/04 13:59:14;;;;;;;3.75;0.73;;;;;;;;;;12976725;19;20018;-66
2023/05/04 14:03:32;;;;;;;1.33;0.82;;;;;;;;;;12976505;19;20018;-65
2023/05/04 14:07:51;;;;;;;0.60;0.60;;;;;;;;;;12976853;19;20014;-66
2023/05/04 14:12:09;;;;;;;2.63;0.82;;;;;;;;;;12973908;19;20014;-65
2023/05/04 14:16:28;;;;;;;0.45;0.40;;;;;;;;;;12974784;19;20862;-66
2023/05/04 14:20:47;;;;;;;1.92;0.85;;;;;;;;;;12973517;19;20074;-66
2023/05/04 14:25:07;;;;;;;2.65;0.82;;;;;;;;;;12959942;19;20120;-65
2023/05/04 14:29:27;;;;;;;2.50;0.60;;;;;;;;;;12987657;19;20019;-65
2023/05/04 14:33:45;;;;;;;1.30;0.80;;;;;;;;;;12987620;19;20014;-65
2023/05/04 14:38:05;;;;;;;1.10;0.68;;;;;;;;;;12986515;19;20010;-65
2023/05/04 14:42:23;;;;;;;0.80;0.63;;;;;;;;;;12987338;19;20043;-65
2023/05/04 14:46:41;;;;;;;1.50;0.80;;;;;;;;;;12987214;19;20023;-65
2023/05/04 14:50:58;;;;;;;1.73;1.05;;;;;;;;;;12987225;19;20085;-65
2023/05/04 14:55:16;;;;;;;1.48;0.95;;;;;;;;;;12986051;19;20014;-66
2023/05/04 14:59:36;;;;;;;1.73;0.70;;;;;;;;;;12985409;19;20465;-66
2023/05/04 15:03:55;;;;;;;0.88;0.75;;;;;;;;;;12985927;19;20002;-65
2023/05/04 15:08:13;;;;;;;1.25;1.10;;;;;;;;;;12984926;19;20010;-65
2023/05/04 15:12:31;;;;;;;1.65;0.88;;;;;;;;;;12985443;19;20022;-65
2023/05/04 15:16:49;;;;;;;2.45;0.90;;;;;;;;;;12984366;19;20878;-66
2023/05/04 15:21:06;;;;;;;1.88;0.82;;;;;;;;;;12983981;19;20010;-66
2023/05/04 15:25:26;;;;;;;2.40;1.05;;;;;;;;;;12985038;19;20655;-65
2023/05/04 15:29:43;;;;;;;3.88;2.10;;;;;;;;;;12985178;19;20023;-65
2023/05/04 15:34:01;;;;;;;3.83;2.15;;;;;;;;;;12982066;19;20764;-66
2023/05/04 15:38:19;;;;;;;4.60;2.30;;;;;;;;;;12984420;19;20026;-66
2023/05/04 15:42:37;;;;;;;1.35;1.00;;;;;;;;;;12982507;19;20017;-66
2023/05/04 15:46:55;;;;;;;1.88;0.80;;;;;;;;;;12983516;19;20022;-65
2023/05/04 15:51:13;;;;;;;1.50;0.80;;;;;;;;;;12982750;19;20019;-66
2023/05/04 15:55:31;;;;;;;1.27;0.95;;;;;;;;;;12983541;19;20014;-65
2023/05/04 15:59:49;;;;;;;1.05;0.73;;;;;;;;;;12981368;19;20013;-65
2023/05/04 16:04:06;;;;;;;1.08;0.70;;;;;;;;;;12981858;19;20022;-67
2023/05/04 16:08:24;;;;;;;1.15;0.70;;;;;;;;;;12982300;19;20014;-66
2023/05/04 16:12:42;;;;;;;1.25;0.82;;;;;;;;;;12982154;19;20018;-67
2023/05/04 16:17:00;;;;;;;;;;;;;;;;;;12982128;19;20014;-67
2023/05/04 16:21:18;;;;;;;;;;;;;;;;;;12981729;19;19919;-67
2023/05/04 16:25:36;;;;;;;0.80;0.70;;;;;;;;;;12981093;19;19919;-67
2023/05/04 16:29:55;;;;;;;2.38;0.88;;;;;;;;;;12981130;19;20520;-66
2023/05/04 16:34:13;;;;;;;3.22;1.50;;;;;;;;;;12980984;19;20485;-67
2023/05/04 16:38:30;;;;;;;;;;;;;;;;;;12981368;19;20014;-67
2023/05/04 16:42:48;;;;;;;2.65;1.45;;;;;;;;;;12977995;19;19923;-66
2023/05/04 16:47:07;;;;;;;4.68;2.65;;;;;;;;;;12979861;19;20038;-66
2023/05/04 16:51:25;;;;;;;1.65;1.00;;;;;;;;;;12980779;19;20025;-66
2023/05/04 16:55:42;;;;;;;2.15;0.60;;;;;;;;;;12979180;19;20398;-66
2023/05/04 17:00:00;;;;;;;1.92;0.90;;;;;;;;;;12978937;19;20007;-66
2023/05/04 17:04:19;;;;;;;1.20;0.82;;;;;;;;;;12978096;19;20042;-66
2023/05/04 17:08:36;;;;;;;1.30;0.80;;;;;;;;;;12978327;19;20017;-67
2023/05/04 17:12:54;;;;;;;0.70;0.60;;;;;;;;;;12978833;19;20723;-66
2023/05/04 17:17:12;;;;;;;1.88;0.80;;;;;;;;;;12977637;19;20030;-67
2023/05/04 17:21:31;;;;;;;1.30;0.70;;;;;;;;;;12977488;19;20006;-67
2023/05/04 17:25:49;;;;;;;2.63;0.88;;;;;;;;;;12978509;19;20007;-66
2023/05/04 17:30:08;;;;;;;4.18;0.90;;;;;;;;;;12977566;19;20183;-66
2023/05/04 17:34:25;;;;;;;1.50;1.05;;;;;;;;;;12976177;19;20033;-66
2023/05/04 17:38:43;;;;;;;2.75;1.83;;;;;;;;;;12977575;19;20017;-66
2023/05/04 17:43:01;;;;;;;4.18;2.90;;;;;;;;;;12974875;19;20025;-66
2023/05/04 17:47:19;;;;;;;11.20;6.80;;;;;;;;;;12975850;19;20018;-66
2023/05/04 17:51:38;;;;;;;17.48;6.03;;;;;;;;;;12976474;19;20018;-68
2023/05/04 17:55:56;;;;;;;11.43;5.72;;;;;;;;;;12989407;19;20014;-67
2023/05/04 18:00:14;;;;;;;31.13;13.43;;;;;;;;;;13000677;19;20028;-67
2023/05/04 18:04:34;;;;;;;15.15;8.93;;;;;;;;;;12999947;19;20014;-66
2023/05/04 18:08:51;;;;;;;8.13;4.68;;;;;;;;;;12998748;19;20007;-66
2023/05/04 18:13:09;;;;;;;78.82;25.55;;;;;;;;;;12999026;19;20041;-66
2023/05/04 18:17:28;;;;;;;9.07;4.32;;;;;;;;;;12998886;19;20021;-66
2023/05/04 18:21:46;;;;;;;15.55;6.00;;;;;;;;;;12999469;19;20010;-66
2023/05/04 18:26:04;;;;;;;18.25;6.35;;;;;;;;;;13000410;19;20133;-67
2023/05/04 18:30:21;;;;;;;15.38;6.95;;;;;;;;;;12999893;19;20010;-67
2023/05/04 18:34:40;;;;;;;9.90;5.13;;;;;;;;;;12999073;19;20007;-66
2023/05/04 18:38:59;;;;;;;14.23;3.50;;;;;;;;;;12999239;19;20685;-66
2023/05/04 18:43:17;;;;;;;9.02;3.67;;;;;;;;;;12995291;19;20011;-66
2023/05/04 18:47:35;;;;;;;8.20;2.88;;;;;;;;;;12998366;19;20034;-67
2023/05/04 18:51:53;;;;;;;6.05;3.28;;;;;;;;;;12999109;19;20038;-65
2023/05/04 18:56:10;;;;;;;8.90;2.83;;;;;;;;;;12997451;19;20015;-65
2023/05/04 19:00:28;;;;;;;7.63;2.88;;;;;;;;;;12999044;19;20154;-65
2023/05/04 19:04:46;;;;;;;7.70;4.07;;;;;;;;;;12997331;19;20126;-65
2023/05/04 19:09:07;;;;;;;10.93;5.35;;;;;;;;;;12983975;19;20014;-65
2023/05/04 19:13:25;;;;;;;8.40;4.50;;;;;;;;;;12985713;19;20038;-66
2023/05/04 19:17:43;;;;;;;;;;;;;;;;;;12986010;19;20022;-66
2023/05/04 19:22:01;;;;;;;11.00;2.97;;;;;;;;;;12984455;19;19918;-67
2023/05/04 19:26:19;;;;;;;5.82;2.88;;;;;;;;;;12984590;19;20508;-65
2023/05/04 19:30:38;;;;;;;9.05;3.30;;;;;;;;;;12984414;19;20340;-66
2023/05/04 19:34:56;;;;;;;22.98;6.80;;;;;;;;;;12982848;19;20799;-66
2023/05/04 19:39:15;;;;;;;14.88;5.97;;;;;;;;;;12982634;19;20011;-66
2023/05/04 19:43:33;;;;;;;16.23;5.25;;;;;;;;;;12983057;19;20007;-65
2023/05/04 19:47:51;;;;;;;17.27;4.78;;;;;;;;;;12982997;19;20011;-67
2023/05/04 19:52:09;;;;;;;;;;;;;;;;;;12982805;19;20013;-66
2023/05/04 19:56:27;;;;;;;15.60;4.82;;;;;;;;;;12982915;19;19954;-66
2023/05/04 20:00:47;;;;;;;13.95;4.93;;;;;;;;;;12982940;19;20010;-65
2023/05/04 20:05:07;;;;;;;20.48;6.05;;;;;;;;;;12980974;19;20007;-65
2023/05/04 20:09:27;;;;;;;25.65;8.63;;;;;;;;;;12982307;19;20006;-65
2023/05/04 20:13:45;;;;;;;15.07;5.70;;;;;;;;;;12981806;19;20021;-64
2023/05/04 20:18:03;;;;;;;15.10;5.88;;;;;;;;;;12979723;19;20011;-66
2023/05/04 20:22:21;;;;;;;14.15;5.95;;;;;;;;;;12981153;19;20041;-68
2023/05/04 20:26:39;;;;;;;18.67;6.60;;;;;;;;;;12980035;19;20647;-66
2023/05/04 20:30:59;;;;;;;16.60;6.90;;;;;;;;;;12981430;19;20021;-66
2023/05/04 20:35:17;;;;;;;16.92;6.30;;;;;;;;;;12981396;19;20043;-65
2023/05/04 20:39:35;;;;;;;16.15;7.47;;;;;;;;;;12980191;19;20341;-65
2023/05/04 20:43:53;;;;;;;16.70;7.00;;;;;;;;;;12979023;19;20006;-65
2023/05/04 20:48:11;;;;;;;15.15;7.57;;;;;;;;;;12978739;19;20074;-67
2023/05/04 20:52:28;;;;;;;21.10;8.10;;;;;;;;;;12979783;19;20009;-65
2023/05/04 20:56:46;;;;;;;14.80;6.88;;;;;;;;;;12979456;19;20006;-65
2023/05/04 21:01:04;;;;;;;18.60;7.68;;;;;;;;;;12979472;19;20365;-64
2023/05/04 21:05:23;;;;;;;21.67;8.63;;;;;;;;;;12978749;19;20038;-65
2023/05/04 21:09:41;;;;;;;18.95;7.82;;;;;;;;;;12979069;19;20418;-65
2023/05/04 21:13:59;;;;;;;15.55;6.68;;;;;;;;;;12979397;19;20492;-66
2023/05/04 21:18:18;;;;;;;17.77;8.27;;;;;;;;;;12978549;19;20022;-66
2023/05/04 21:22:36;;;;;;;16.95;7.70;;;;;;;;;;12977973;19;20010;-66
2023/05/04 21:26:54;;;;;;;;;;;;;;;;;;12978536;19;19998;-65
2023/05/04 21:31:11;;;;;;;14.47;6.10;;;;;;;;;;12975501;19;19921;-65
2023/05/04 21:35:30;;;;;;;13.95;6.38;;;;;;;;;;12977135;19;20011;-65
2023/05/04 21:39:53;;;;;;;15.00;6.75;;;;;;;;;;12976881;19;20007;-65
2023/05/04 21:44:11;;;;;;;9.85;5.45;;;;;;;;;;12974787;19;20013;-65
2023/05/04 21:48:28;;;;;;;13.77;5.95;;;;;;;;;;12977216;19;20007;-65
2023/05/04 21:52:46;;;;;;;11.82;5.25;;;;;;;;;;12977307;19;20023;-65
2023/05/04 21:57:05;;;;;;;10.07;4.65;;;;;;;;;;12975750;19;20476;-66
2023/05/04 22:01:23;;;;;;;12.75;5.35;;;;;;;;;;12976702;19;20017;-65
2023/05/04 22:05:41;;;;;;;12.75;5.57;;;;;;;;;;12974380;19;20383;-65
2023/05/04 22:09:58;;;;;;;10.85;4.78;;;;;;;;;;12976600;19;20014;-65
2023/05/04 22:14:17;;;;;;;11.63;5.00;;;;;;;;;;12952644;19;20019;-66
2023/05/04 22:18:35;;;;;;;16.15;6.45;;;;;;;;;;12974485;19;20011;-65
2023/05/04 22:22:52;;;;;;;11.32;5.90;;;;;;;;;;12974556;19;20014;-65
2023/05/04 22:27:10;;;;;;;10.25;5.55;;;;;;;;;;12974017;19;20351;-65
2023/05/04 22:31:28;;;;;;;11.77;5.40;;;;;;;;;;12975208;19;20032;-67
2023/05/04 22:35:45;;;;;;;11.23;5.65;;;;;;;;;;12974396;19;20054;-65
2023/05/04 22:40:07;;;;;;;11.13;4.82;;;;;;;;;;12973708;19;20015;-66
2023/05/04 22:44:25;;;;;;;12.90;5.18;;;;;;;;;;12983386;19;20018;-66
2023/05/04 22:48:46;;;;;;;13.98;5.78;;;;;;;;;;12986679;19;20670;-66
2023/05/04 22:53:04;;;;;;;12.55;4.97;;;;;;;;;;12985253;19;20010;-66
2023/05/04 22:57:22;;;;;;;10.43;4.85;;;;;;;;;;12986285;19;20027;-65
2023/05/04 23:01:42;;;;;;;8.60;4.78;;;;;;;;;;12986530;19;20018;-66
2023/05/04 23:06:01;;;;;;;8.80;4.15;;;;;;;;;;12983283;19;20038;-66
2023/05/04 23:10:18;;;;;;;9.02;4.70;;;;;;;;;;12983803;19;20509;-65
2023/05/04 23:14:36;;;;;;;10.50;4.22;;;;;;;;;;12986506;19;20030;-66
2023/05/04 23:18:54;;;;;;;13.32;5.05;;;;;;;;;;12985319;19;20166;-66
2023/05/04 23:23:12;;;;;;;8.55;4.60;;;;;;;;;;12983151;19;20010;-65
2023/05/04 23:27:30;;;;;;;6.82;4.10;;;;;;;;;;12984894;19;20010;-66
2023/05/04 23:31:47;;;;;;;10.15;4.93;;;;;;;;;;12984096;19;20030;-67
2023/05/04 23:36:05;;;;;;;8.73;4.28;;;;;;;;;;12982174;19;20018;-66
2023/05/04 23:40:23;;;;;;;10.65;4.10;;;;;;;;;;12983260;19;20022;-65
2023/05/04 23:44:41;;;;;;;7.72;3.70;;;;;;;;;;12981330;19;20033;-66
2023/05/04 23:49:02;;;;;;;7.65;4.25;;;;;;;;;;12981201;19;20026;-66
2023/05/04 23:53:20;;;;;;;11.02;4.05;;;;;;;;;;12981637;19;20015;-65
2023/05/04 23:57:38;;;;;;;9.65;4.20;;;;;;;;;;12983035;19;20010;-65
